Aérodrome :
LOGIN :

S'inscrire | Disclaimer

   EN    FR    IT 

 










Légende :    VFR   VFR Marginal   IFR   IFR Intensif   IFR Très Intensif
Visi : 
Plafond : 
>= 8 km
>= 3000ft
5 à 8 km
1000 à 3000 ft
1500m à 5 km
500 à 1000 ft
800 à 1500m
200 à 500 ft
< 800m
< 200 ft
Symboles :   Orages  Brouillard  Fortes neiges  Fortes précipitations  Vent > 20 kt
SIGMETs :   Divers  Orages  Givrage  Turbulence  Onde Orograph.  Cendres Volcan.






- Altitude de l'aérodrome : 106 ft
- Code IATA : NRN


EDLV - Weeze

DERNIER METAR :
  • 260520Z VRB03KT 5000 -DZ BKN004 10/09 Q0995

METARs EXPIRÉS :
  • 260450Z VRB02KT 7000 -DZ BKN004 10/09 Q0994
  • 260420Z VRB03KT 6000 -DZ BKN004 11/10 Q0994
  • 260350Z VRB02KT 9999 -DZ BKN004 11/10 Q0993
  • 260320Z VRB02KT 9999 -DZ BKN004 11/10 Q0993
  • 260250Z VRB03KT 4400 -DZ BKN004 11/10 Q0992

TAF TAF EDLV
Valide du 26 à 06h jusqu'au 27 à 06h UTC


260500Z 2606/2706 32005KT 9999 BKN004
TEMPO 2606/2706 VRB03KT
BECMG 2607/2610 BKN013
BECMG 2611/2613 SCT030
TEMPO 2618/2624 4000 RA
BECMG 2619/2622 BKN008
PROB40
TEMPO 2620/2706 2000 -RADZ BKN004
PROB30
TEMPO 2703/2706 1200 DZ OVC001



MET'MAP, la Météo Aéronautique d'un coup d'oeil ! - Copyright ORBIFLY Décembre 2007 - Disclaimer

ORBIFLY MET'MAP TEAM :

Programmation & Développement : Alexandra Zaïnal
Sur une idée originale de : Baudouin d'Aumeries
Assistance à la programmation : Marc-Olivier Méhu
Soutien technique & logistique : Manuel Goepfert

Contact : metmap@orbifly.com




SOURCES & CREDITS :

   NOAA